Foehn-Box 5     Le Cottier - Séez                      
EPHEMERIDE     (heures GMT)
Lever Zenith Coucher
7:1:4 11:24:21 15:47:26

Validation GPS le : 21-12-7 8:2  (GMT)

BATTERIE : 4.27      SOLAIRE : 0.09

SIGNAL : 27.99 ALTITUDE : 1400

FOEHN-BOX 5           Date :  07/12/2021   
Heure Vent
instant
Vent
moyen
Vent
mini
Vent
maxi
Direction
vent
Tempe
-rature
Pression
Humidite
17:30:14 4 2 0 4 -0.8 857.3 69.7
17:25:13 3 4 1 6 -0.7 857.4 69.6
17:20:13 3 3 1 4 -0.8 857.5 70.0
17:15:13 6 3 0 6 -0.9 857.6 69.8
17:10:14 0 1 0 3 -0.9 857.6 69.8
17:05:13 1 1 0 3 -0.7 857.7 70.3
17:00:13 3 2 0 4 -0.8 857.7 70.0
16:55:13 0 1 0 3 -0.6 857.7 69.7
16:50:13 0 3 0 6 -0.4 857.7 69.5
16:45:13 3 4 1 8 -0.6 857.6 69.1
16:40:13 4 4 0 8 -0.6 857.7 69.0
16:35:15 0 1 0 3 -0.4 857.8 68.9
16:30:13 1 1 0 3 -0.2 857.7 68.9
16:25:13 0 1 0 3 -0.1 857.9 68.6
16:20:14 0 2 0 4 -0.1 857.8 68.5
16:15:13 1 2 0 4 -0.2 858.0 68.6
16:10:13 3 3 1 4 -0.3 858.1 68.4
16:05:13 3 2 0 4 -0.4 858.1 67.6
16:00:13 1 1 0 3 -0.1 858.1 67.9
15:55:13 1 4 0 8 -0.1 858.1 68.0
15:50:13 4 4 1 8 -0.1 858.2 67.6
15:45:13 6 4 1 6 0.0 858.4 67.1
15:40:13 3 3 1 4 0.1 858.7 65.6